Airfield :
LOGIN :

Register | Disclaimer

   EN    FR    IT 

 










Legend :    VFR   Marginal VFR   IFR   Intensive IFR   Very Intensive IFR
Visi :
Ceiling :
>= 8 km
>= 3000ft
5 to 8 km
1000 to 3000 ft
1500m to 5 km
500 to 1000 ft
800 to 1500m
200 to 500 ft
< 800m
< 200 ft
Symbols :   Thunderstorms  Fog  Heavy snow  Heavy precipitations  Wind > 20 kt
SIGMETs :     Misc.  Thunderstorms  Icing  Turbulence  Mountain Waves  Volcanic Ashes







- Airport Elevation : 141 ft
- IATA code : SKS


EKSP - Srydstrup Vojens

CURRENT METAR :
  • 201750Z 17003KT CAVOK 17/17 Q1009 RMK FEW052 SCT130 BKN210

EXPIRED METARs :
  • 201720Z 16003KT 9999 FEW032CB SCT052 BKN130 17/16 Q1010
  • 201650Z 14001KT 9999 FEW023 FEW032CB BKN090 17/16 Q1010
  • 201620Z 19004KT 160V220 9999 VCSH FEW023 FEW032CB BKN048 17/16 Q1010
  • 201605Z 23004KT 200V260 9999 -SHRA FEW024 FEW032CB BKN048 17/16 Q1010 RESHRA
  • 201550Z 25006KT 220V280 6000 SHRA FEW024 SCT032CB BKN052 17/16 Q1010
  • 201541Z 25006KT 220V280 7000 -SHRASN FEW024 SCT032CB BKN052 17/16 Q1010
  • 201525Z 27008KT 9999 -TSRA SCT032CB BKN052 18/16 Q1010

TAF TAF EKSP
Valid from the 20 at 18:00 until the 21 at 18:00 UTC


201705Z 2018/2118 19007KT 9999 SCT050 BKN080
TEMPO 2018/2105 2500 BR -SHRA BKN004 SCT020CB
TEMPO 2105/2110 4000 BR BKN008
BECMG 2108/2111 26015G28KT
No reported NOTAMs for that airfield.
1 SIGMET reported for the Kobenhavn FIR (EKDK) :
 
Embedded thunderstorms
EKDK SIGMET 2 VALID 201620/201820 EKMI
EKDK KOBENHAVN FIR EMBD TS OBS AT 1620Z WI N5453 E00846 - N5644 E00847 - N5653 E00911 - N5430 E01130 - N5453 E00846 TOP FL400 NC FCST AT 1820Z WI N5445 E01003 - N5544 E00851 - N5731 E00853 - N5801 E01044 - N5443 E01229 - N5426 E01155 - N5445 E01003=



MET'MAP, your aeronautical weather chart ! - Copyright ORBIFLY December 2007 - Disclaimer

ORBIFLY MET'MAP TEAM :

Programming & Development : Alexandra Zaïnal
Concept & Development : Baudouin d'Aumeries
Co-Development & Prog : Marc-Olivier Méhu
Technical & hardware support : Manuel Goepfert

Contact : metmap@orbifly.com




SOURCES & CREDITS :

   NOAA